createdAt,value
2018-07-17T00:00:32.150Z,9.80
2018-07-17T00:03:01.043Z,8.78
2018-07-17T00:05:29.940Z,8.80
2018-07-17T00:07:58.828Z,9.35
2018-07-17T00:10:27.743Z,9.65
2018-07-17T00:12:56.551Z,8.75
2018-07-17T00:15:25.755Z,8.35
2018-07-17T00:17:54.749Z,9.45
2018-07-17T00:20:23.972Z,9.80
2018-07-17T00:22:52.796Z,10.28
2018-07-17T00:25:21.439Z,9.33
2018-07-17T00:27:50.564Z,8.58
2018-07-17T00:30:19.321Z,9.50
2018-07-17T00:32:48.485Z,10.40
2018-07-17T00:35:17.509Z,9.60
2018-07-17T00:37:46.549Z,9.40
2018-07-17T00:40:16.282Z,10.20
2018-07-17T00:42:46.760Z,9.73
2018-07-17T00:45:15.619Z,9.68
2018-07-17T00:47:45.685Z,9.88
2018-07-17T00:50:14.655Z,10.38
2018-07-17T00:52:43.631Z,10.10
2018-07-17T00:55:13.325Z,10.32
2018-07-17T00:57:42.476Z,10.20
2018-07-17T01:00:11.496Z,9.45
2018-07-17T01:02:45.730Z,10.65
2018-07-17T01:05:20.555Z,10.75
2018-07-17T01:07:55.345Z,10.30
2018-07-17T01:10:30.005Z,10.03
2018-07-17T01:12:58.055Z,10.43
2018-07-17T01:15:31.024Z,11.20
2018-07-17T01:17:59.911Z,8.90
2018-07-17T01:20:28.868Z,10.13
2018-07-17T01:22:57.852Z,8.95
2018-07-17T01:25:26.704Z,8.80
2018-07-17T01:27:55.546Z,9.83
2018-07-17T01:30:24.531Z,9.48
2018-07-17T01:32:53.347Z,9.80
2018-07-17T01:35:22.535Z,9.13
2018-07-17T01:37:51.728Z,9.63
2018-07-17T01:40:20.716Z,10.50
2018-07-17T01:42:50.036Z,10.43
2018-07-17T01:45:19.110Z,10.50
2018-07-17T01:47:48.205Z,10.40
2018-07-17T01:50:17.386Z,11.00
2018-07-17T01:52:46.292Z,9.00
2018-07-17T01:55:15.214Z,11.38
2018-07-17T01:57:44.097Z,9.80
2018-07-17T02:00:12.948Z,10.75
2018-07-17T02:02:42.053Z,10.58
2018-07-17T02:05:12.694Z,11.22
2018-07-17T02:07:41.663Z,10.15
2018-07-17T02:10:10.526Z,9.58
2018-07-17T02:12:39.476Z,11.25
2018-07-17T02:15:08.619Z,9.35
2018-07-17T02:17:37.572Z,9.05
2018-07-17T02:20:06.919Z,9.98
2018-07-17T02:22:36.931Z,9.15
2018-07-17T02:25:06.041Z,9.88
2018-07-17T02:27:34.892Z,8.33
2018-07-17T02:30:03.825Z,9.13
2018-07-17T02:32:32.676Z,9.38
2018-07-17T02:35:01.481Z,8.90
2018-07-17T02:37:30.347Z,9.73
2018-07-17T02:39:59.221Z,9.63
2018-07-17T02:42:28.189Z,8.85
2018-07-17T02:44:57.262Z,11.45
2018-07-17T02:47:26.426Z,9.60
2018-07-17T02:49:55.300Z,10.40
2018-07-17T02:52:25.094Z,9.80
2018-07-17T02:54:54.123Z,9.58
2018-07-17T02:57:23.020Z,11.35
2018-07-17T02:59:52.004Z,10.35
2018-07-17T03:02:21.642Z,10.32
2018-07-17T03:04:50.735Z,11.22
2018-07-17T03:07:19.839Z,10.72
2018-07-17T03:09:48.928Z,11.78
2018-07-17T03:12:18.014Z,9.75
2018-07-17T03:14:47.145Z,10.95
2018-07-17T03:17:16.019Z,11.12
2018-07-17T03:19:46.074Z,10.55
2018-07-17T03:22:15.272Z,11.43
2018-07-17T03:24:44.221Z,10.93
2018-07-17T03:27:13.044Z,10.10
2018-07-17T03:29:41.960Z,10.60
2018-07-17T03:32:10.848Z,11.45
2018-07-17T03:34:39.753Z,10.68
2018-07-17T03:37:08.669Z,10.23
2018-07-17T03:39:37.515Z,10.03
2018-07-17T03:42:06.467Z,8.93
2018-07-17T03:44:35.282Z,10.43
2018-07-17T03:47:04.185Z,10.28
2018-07-17T03:49:33.056Z,8.85
2018-07-17T03:52:02.582Z,11.10
2018-07-17T03:54:31.438Z,10.82
2018-07-17T03:57:00.281Z,10.93
2018-07-17T03:59:29.352Z,11.20
2018-07-17T04:01:58.960Z,9.68
2018-07-17T04:04:27.827Z,11.00
2018-07-17T04:06:57.511Z,10.43
2018-07-17T04:09:27.236Z,12.80
2018-07-17T04:11:56.821Z,10.48
2018-07-17T04:14:26.672Z,12.88
2018-07-17T04:16:56.904Z,10.60
2018-07-17T04:19:27.052Z,10.90
2018-07-17T04:21:55.770Z,12.35
2018-07-17T04:24:25.078Z,13.98
2018-07-17T04:26:54.699Z,11.68
2018-07-17T04:29:23.812Z,13.62
2018-07-17T04:31:52.715Z,14.03
2018-07-17T04:34:22.360Z,12.73
2018-07-17T04:36:51.180Z,12.13
2018-07-17T04:39:20.005Z,11.65
2018-07-17T04:41:49.055Z,11.83
2018-07-17T04:44:18.156Z,12.63
2018-07-17T04:46:47.052Z,11.60
2018-07-17T04:49:15.960Z,11.43
2018-07-17T04:51:44.896Z,11.65
2018-07-17T04:54:13.708Z,10.90
2018-07-17T04:56:42.555Z,10.50
2018-07-17T04:59:11.384Z,12.73
2018-07-17T05:01:40.379Z,10.72
2018-07-17T05:04:09.216Z,10.58
2018-07-17T05:06:38.752Z,10.13
2018-07-17T05:09:09.259Z,11.28
2018-07-17T05:11:38.138Z,10.63
2018-07-17T05:14:07.008Z,11.68
2018-07-17T05:16:35.836Z,12.20
2018-07-17T05:19:04.827Z,11.05
2018-07-17T05:21:34.439Z,12.03
2018-07-17T05:24:03.495Z,10.90
2018-07-17T05:26:32.407Z,10.98
2018-07-17T05:29:01.307Z,11.22
2018-07-17T05:31:30.709Z,12.45
2018-07-17T05:33:59.590Z,14.40
2018-07-17T05:36:28.444Z,14.73
2018-07-17T05:38:57.323Z,15.00
2018-07-17T05:41:26.170Z,18.02
2018-07-17T05:43:55.020Z,17.75
2018-07-17T05:46:23.964Z,17.80
2018-07-17T05:48:52.825Z,18.50
2018-07-17T05:51:21.771Z,18.77
2018-07-17T05:53:50.640Z,17.00
2018-07-17T05:56:19.158Z,16.10
2018-07-17T05:58:48.446Z,18.07
2018-07-17T06:01:17.336Z,19.20
2018-07-17T06:03:46.216Z,20.90
2018-07-17T06:06:15.112Z,17.75
2018-07-17T06:08:43.990Z,19.17
2018-07-17T06:11:12.911Z,19.70
2018-07-17T06:13:41.861Z,19.80
2018-07-17T06:16:10.717Z,18.40
2018-07-17T06:18:39.555Z,16.95
2018-07-17T06:21:08.439Z,18.90
2018-07-17T06:23:37.531Z,17.10
2018-07-17T06:26:06.723Z,19.57
2018-07-17T06:28:35.573Z,18.85
2018-07-17T06:31:04.459Z,18.35
2018-07-17T06:33:33.343Z,19.55
2018-07-17T06:36:02.200Z,18.98
2018-07-17T06:38:31.130Z,17.15
2018-07-17T06:41:00.160Z,18.40
2018-07-17T06:43:29.055Z,18.80
2018-07-17T06:45:57.941Z,17.73
2018-07-17T06:48:26.785Z,18.60
2018-07-17T06:50:55.774Z,18.12
2018-07-17T06:53:24.704Z,18.90
2018-07-17T06:55:53.643Z,18.52
2018-07-17T06:58:22.482Z,17.75
2018-07-17T07:00:51.337Z,19.07
2018-07-17T07:03:20.186Z,18.35
2018-07-17T07:05:49.146Z,18.45
2018-07-17T07:08:18.350Z,17.80
2018-07-17T07:10:47.209Z,17.60
2018-07-17T07:13:16.077Z,17.25
2018-07-17T07:15:44.953Z,16.97
2018-07-17T07:18:13.751Z,19.30
2018-07-17T07:20:42.576Z,19.50
2018-07-17T07:23:11.539Z,19.60
2018-07-17T07:25:40.380Z,20.45
2018-07-17T07:28:09.224Z,17.80
2018-07-17T07:30:38.040Z,18.67
2018-07-17T07:33:07.156Z,20.52
2018-07-17T07:35:46.867Z,19.25
2018-07-17T07:38:15.788Z,20.82
2018-07-17T07:40:44.644Z,20.20
2018-07-17T07:43:13.505Z,20.05
2018-07-17T07:45:42.331Z,19.45
2018-07-17T07:48:11.280Z,16.95
2018-07-17T07:50:40.133Z,18.23
2018-07-17T07:53:08.971Z,17.57
2018-07-17T07:55:37.870Z,18.00
2018-07-17T07:58:06.987Z,17.95
2018-07-17T08:00:35.858Z,17.15
2018-07-17T08:03:04.706Z,16.02
2018-07-17T08:05:34.125Z,15.53
2018-07-17T08:08:02.979Z,14.90
2018-07-17T08:10:31.883Z,17.15
2018-07-17T08:13:00.818Z,16.30
2018-07-17T08:15:29.736Z,15.50
2018-07-17T08:17:58.591Z,17.30
2018-07-17T08:20:27.468Z,16.80
2018-07-17T08:22:56.429Z,14.80
2018-07-17T08:25:25.553Z,15.53
2018-07-17T08:27:54.488Z,15.90
2018-07-17T08:30:23.457Z,15.75
2018-07-17T08:32:52.367Z,15.05
2018-07-17T08:35:21.227Z,16.15
2018-07-17T08:37:50.111Z,16.32
2018-07-17T08:40:18.946Z,14.07
2018-07-17T08:42:47.848Z,14.85
2018-07-17T08:45:16.691Z,15.28
2018-07-17T08:47:45.541Z,14.80
2018-07-17T08:50:14.811Z,14.63
2018-07-17T08:52:43.782Z,15.20
2018-07-17T08:55:12.674Z,13.05
2018-07-17T08:57:41.507Z,14.10
2018-07-17T09:00:10.474Z,15.35
2018-07-17T09:02:39.320Z,14.53
2018-07-17T09:05:08.215Z,14.33
2018-07-17T09:07:37.043Z,14.45
2018-07-17T09:10:05.945Z,15.48
2018-07-17T09:12:34.813Z,14.28
2018-07-17T09:15:03.819Z,13.98
2018-07-17T09:17:32.668Z,15.65
2018-07-17T09:20:01.523Z,14.47
2018-07-17T09:22:30.419Z,13.80
2018-07-17T09:24:59.261Z,13.98
2018-07-17T09:27:28.149Z,13.62
2018-07-17T09:29:56.965Z,14.40
2018-07-17T09:32:26.095Z,13.80
2018-07-17T09:34:54.972Z,13.72
2018-07-17T09:37:23.838Z,14.35
2018-07-17T09:39:52.660Z,15.23
2018-07-17T09:42:21.531Z,14.98
2018-07-17T09:44:50.419Z,15.08
2018-07-17T09:47:19.396Z,15.32
2018-07-17T09:49:48.323Z,15.45
2018-07-17T09:52:17.193Z,14.33
2018-07-17T09:54:46.667Z,15.48
2018-07-17T09:57:15.626Z,14.80
2018-07-17T09:59:44.538Z,13.62
2018-07-17T10:02:18.597Z,14.75
2018-07-17T10:04:47.483Z,15.43
2018-07-17T10:07:16.442Z,14.58
2018-07-17T10:09:45.316Z,15.80
2018-07-17T10:12:14.225Z,15.13
2018-07-17T10:14:43.097Z,15.88
2018-07-17T10:17:12.176Z,13.85
2018-07-17T10:19:41.032Z,15.13
2018-07-17T10:22:09.894Z,16.37
2018-07-17T10:24:38.811Z,16.10
2018-07-17T10:27:07.673Z,16.27
2018-07-17T10:29:36.542Z,15.35
2018-07-17T10:32:05.434Z,16.37
2018-07-17T10:34:34.328Z,15.48
2018-07-17T10:37:03.192Z,15.30
2018-07-17T10:39:32.169Z,15.78
2018-07-17T10:42:01.701Z,16.23
2018-07-17T10:44:30.532Z,15.48
2018-07-17T10:46:59.413Z,14.98
2018-07-17T10:49:28.286Z,16.25
2018-07-17T10:51:57.156Z,16.10
2018-07-17T10:54:26.025Z,16.30
2018-07-17T10:56:55.023Z,16.50
2018-07-17T10:59:23.937Z,16.67
2018-07-17T11:01:52.798Z,17.42
2018-07-17T11:04:21.666Z,15.78
2018-07-17T11:06:50.506Z,17.15
2018-07-17T11:09:19.397Z,18.20
2018-07-17T11:11:48.304Z,20.30
2018-07-17T11:14:17.296Z,20.35
2018-07-17T11:16:46.122Z,19.57
2018-07-17T11:19:15.006Z,20.85
2018-07-17T11:21:44.699Z,18.65
2018-07-17T11:24:13.592Z,17.77
2018-07-17T11:26:42.448Z,20.30
2018-07-17T11:29:11.351Z,23.50
2018-07-17T11:31:40.164Z,20.08
2018-07-17T11:34:08.997Z,20.08
2018-07-17T11:36:37.862Z,20.30
2018-07-17T11:39:07.859Z,20.60
2018-07-17T11:41:36.742Z,20.90
2018-07-17T11:44:05.658Z,21.77
2018-07-17T11:46:34.543Z,19.42
2018-07-17T11:49:03.436Z,19.45
2018-07-17T11:51:32.355Z,19.80
2018-07-17T11:54:01.260Z,21.52
2018-07-17T11:56:30.171Z,21.62
2018-07-17T11:58:59.075Z,20.90
2018-07-17T12:01:27.902Z,22.48
2018-07-17T12:03:56.899Z,20.65
2018-07-17T12:06:25.813Z,22.55
2018-07-17T12:08:54.669Z,22.25
2018-07-17T12:11:23.544Z,22.62
2018-07-17T12:13:52.413Z,21.70
2018-07-17T12:16:21.247Z,22.22
2018-07-17T12:18:50.107Z,26.35
2018-07-17T12:21:19.045Z,22.75
2018-07-17T12:23:47.936Z,24.70
2018-07-17T12:26:16.804Z,23.42
2018-07-17T12:28:45.672Z,24.82
2018-07-17T12:31:14.553Z,25.70
2018-07-17T12:33:43.411Z,24.80
2018-07-17T12:36:12.267Z,25.20
2018-07-17T12:38:41.149Z,26.33
2018-07-17T12:41:10.027Z,24.95
2018-07-17T12:43:38.520Z,25.85
2018-07-17T12:46:07.378Z,26.60
2018-07-17T12:48:36.828Z,26.55
2018-07-17T12:51:05.708Z,26.90
2018-07-17T12:53:35.228Z,27.25
2018-07-17T12:56:04.155Z,28.73
2018-07-17T12:58:32.975Z,27.80
2018-07-17T13:01:01.867Z,26.80
2018-07-17T13:03:30.760Z,29.32
2018-07-17T13:05:59.596Z,26.40
2018-07-17T13:08:28.464Z,27.48
2018-07-17T13:10:57.316Z,28.05
2018-07-17T13:13:26.248Z,27.40
2018-07-17T13:15:55.237Z,26.42
2018-07-17T13:18:24.144Z,28.62
2018-07-17T13:20:53.028Z,29.80
2018-07-17T13:23:21.964Z,26.42
2018-07-17T13:25:50.843Z,28.15
2018-07-17T13:28:19.699Z,25.15
2018-07-17T13:30:48.636Z,28.50
2018-07-17T13:33:17.520Z,27.13
2018-07-17T13:35:46.351Z,25.88
2018-07-17T13:38:15.330Z,28.25
2018-07-17T13:40:44.217Z,27.85
2018-07-17T13:43:13.049Z,27.82
2018-07-17T13:45:41.945Z,30.80
2018-07-17T13:48:11.024Z,27.22
2018-07-17T13:50:39.870Z,30.77
2018-07-17T13:53:08.948Z,28.77
2018-07-17T13:55:37.862Z,29.85
2018-07-17T13:58:06.747Z,30.00
2018-07-17T14:00:35.628Z,26.97
2018-07-17T14:03:04.472Z,30.37
2018-07-17T14:05:33.390Z,28.57
2018-07-17T14:08:02.269Z,28.75
2018-07-17T14:10:31.207Z,28.38
2018-07-17T14:13:00.204Z,28.80
2018-07-17T14:15:29.057Z,28.90
2018-07-17T14:17:58.168Z,28.45
2018-07-17T14:20:27.147Z,32.42
2018-07-17T14:22:56.043Z,28.70
2018-07-17T14:25:25.057Z,30.40
2018-07-17T14:27:54.289Z,28.83
2018-07-17T14:30:23.468Z,30.30
2018-07-17T14:32:52.098Z,29.27
2018-07-17T14:35:21.004Z,26.77
2018-07-17T14:37:49.856Z,27.05
2018-07-17T14:40:18.790Z,27.62
2018-07-17T14:42:47.940Z,26.55
2018-07-17T14:45:16.833Z,23.87
2018-07-17T14:47:45.740Z,22.52
2018-07-17T14:50:14.651Z,22.32
2018-07-17T14:52:43.516Z,19.65
2018-07-17T14:55:12.453Z,19.90
2018-07-17T14:57:41.606Z,21.17
2018-07-17T15:00:12.771Z,21.02
2018-07-17T15:02:41.659Z,23.85
2018-07-17T15:05:10.960Z,22.62
2018-07-17T15:07:40.102Z,25.80
2018-07-17T15:10:09.506Z,23.35
2018-07-17T15:12:38.388Z,23.30
2018-07-17T15:15:07.687Z,24.35
2018-07-17T15:17:36.871Z,22.90
2018-07-17T15:20:05.789Z,22.75
2018-07-17T15:22:34.760Z,22.65
2018-07-17T15:25:03.715Z,22.02
2018-07-17T15:27:32.636Z,21.73
2018-07-17T15:30:02.540Z,21.12
2018-07-17T15:32:31.388Z,22.10
2018-07-17T15:35:00.375Z,22.02
2018-07-17T15:37:29.635Z,20.05
2018-07-17T15:39:58.999Z,21.42
2018-07-17T15:42:27.867Z,20.12
2018-07-17T15:44:56.743Z,18.62
2018-07-17T15:47:25.673Z,18.90
2018-07-17T15:49:54.587Z,19.48
2018-07-17T15:52:23.711Z,21.48
2018-07-17T15:54:52.580Z,17.55
2018-07-17T15:57:21.853Z,19.12
2018-07-17T15:59:51.605Z,19.48
2018-07-17T16:02:20.512Z,17.35
2018-07-17T16:04:49.030Z,19.65
2018-07-17T16:07:17.956Z,18.23
2018-07-17T16:09:46.803Z,19.48
2018-07-17T16:12:15.704Z,17.82
2018-07-17T16:14:44.528Z,18.70
2018-07-17T16:17:13.424Z,19.23
2018-07-17T16:19:42.314Z,18.67
2018-07-17T16:22:11.277Z,17.00
2018-07-17T16:24:40.100Z,17.45
2018-07-17T16:27:09.039Z,19.87
2018-07-17T16:29:38.024Z,16.95
2018-07-17T16:32:07.187Z,16.93
2018-07-17T16:34:36.080Z,17.48
2018-07-17T16:37:05.099Z,16.23
2018-07-17T16:39:34.019Z,17.02
2018-07-17T16:42:02.947Z,17.90
2018-07-17T16:44:31.987Z,16.37
2018-07-17T16:47:00.806Z,16.80
2018-07-17T16:49:29.683Z,16.85
2018-07-17T16:51:58.520Z,17.07
2018-07-17T16:54:27.399Z,15.45
2018-07-17T16:56:56.257Z,15.85
2018-07-17T16:59:25.252Z,15.20
2018-07-17T17:01:54.256Z,15.18
2018-07-17T17:04:23.106Z,15.32
2018-07-17T17:06:52.251Z,14.55
2018-07-17T17:09:21.164Z,13.30
2018-07-17T17:11:50.031Z,15.15
2018-07-17T17:14:18.914Z,13.18
2018-07-17T17:16:47.808Z,14.75
2018-07-17T17:19:16.663Z,14.65
2018-07-17T17:21:45.512Z,14.05
2018-07-17T17:24:14.622Z,14.73
2018-07-17T17:26:43.551Z,15.55
2018-07-17T17:29:12.365Z,14.40
2018-07-17T17:31:41.215Z,13.98
2018-07-17T17:34:10.080Z,14.35
2018-07-17T17:36:38.962Z,14.95
2018-07-17T17:39:09.366Z,14.43
2018-07-17T17:41:38.467Z,14.68
2018-07-17T17:44:08.165Z,14.05
2018-07-17T17:46:37.177Z,14.93
2018-07-17T17:49:06.459Z,13.75
2018-07-17T17:51:35.482Z,14.98
2018-07-17T17:54:04.450Z,17.17
2018-07-17T17:56:33.301Z,16.02
2018-07-17T17:59:02.147Z,14.38
2018-07-17T18:01:30.990Z,16.65
2018-07-17T18:03:59.840Z,16.35
2018-07-17T18:06:28.781Z,17.45
2018-07-17T18:08:57.975Z,17.10
2018-07-17T18:11:27.041Z,19.67
2018-07-17T18:13:55.871Z,18.25
2018-07-17T18:16:24.793Z,18.12
2018-07-17T18:18:53.262Z,18.00
2018-07-17T18:21:22.124Z,16.20
2018-07-17T18:23:50.972Z,17.48
2018-07-17T18:26:19.937Z,16.15
2018-07-17T18:28:48.799Z,14.87
2018-07-17T18:31:17.652Z,15.53
2018-07-17T18:33:46.499Z,17.95
2018-07-17T18:36:15.400Z,18.10
2018-07-17T18:38:44.300Z,17.60
2018-07-17T18:41:13.402Z,17.77
2018-07-17T18:43:42.214Z,17.42
2018-07-17T18:46:11.043Z,16.52
2018-07-17T18:48:44.415Z,18.95
2018-07-17T18:51:13.419Z,17.10
2018-07-17T18:53:42.307Z,19.50
2018-07-17T18:56:11.551Z,18.60
2018-07-17T18:58:40.481Z,19.00
2018-07-17T19:01:09.346Z,19.30
2018-07-17T19:03:38.541Z,19.62
2018-07-17T19:06:08.020Z,19.85
2018-07-17T19:08:36.961Z,19.32
2018-07-17T19:11:06.228Z,18.85
2018-07-17T19:13:35.963Z,17.75
2018-07-17T19:16:04.919Z,21.23
2018-07-17T19:18:33.846Z,20.62
2018-07-17T19:21:02.752Z,21.10
2018-07-17T19:23:31.593Z,20.35
2018-07-17T19:26:00.535Z,20.45
2018-07-17T19:28:29.383Z,19.87
2018-07-17T19:30:59.082Z,19.80
2018-07-17T19:33:28.229Z,18.82
2018-07-17T19:35:57.549Z,19.23
2018-07-17T19:38:26.589Z,19.23
2018-07-17T19:40:55.576Z,18.95
2018-07-17T19:43:24.515Z,19.23
2018-07-17T19:45:53.700Z,19.52
2018-07-17T19:48:22.643Z,20.02
2018-07-17T19:50:51.589Z,20.32
2018-07-17T19:53:20.442Z,20.68
2018-07-17T19:55:48.903Z,21.17
2018-07-17T19:58:17.801Z,23.73
2018-07-17T20:00:46.754Z,23.85
2018-07-17T20:03:16.487Z,22.37
2018-07-17T20:05:45.345Z,23.20
2018-07-17T20:08:14.615Z,22.02
2018-07-17T20:10:43.658Z,23.90
2018-07-17T20:13:12.596Z,22.55
2018-07-17T20:15:41.518Z,22.80
2018-07-17T20:18:10.577Z,23.30
2018-07-17T20:20:39.438Z,23.25
2018-07-17T20:23:08.297Z,19.90
2018-07-17T20:25:37.177Z,24.27
2018-07-17T20:28:06.166Z,20.85
2018-07-17T20:30:35.067Z,20.75
2018-07-17T20:33:03.913Z,20.45
2018-07-17T20:35:32.782Z,20.85
2018-07-17T20:38:01.623Z,20.17
2018-07-17T20:40:30.506Z,19.30
2018-07-17T20:43:00.315Z,20.77
2018-07-17T20:45:29.369Z,19.30
2018-07-17T20:47:58.205Z,18.75
2018-07-17T20:50:28.564Z,18.30
2018-07-17T20:52:57.461Z,19.15
2018-07-17T20:55:26.433Z,16.55
2018-07-17T20:57:55.496Z,16.27
2018-07-17T21:00:24.383Z,16.37
2018-07-17T21:02:53.271Z,18.40
2018-07-17T21:05:22.248Z,19.02
2018-07-17T21:07:51.152Z,18.20
2018-07-17T21:10:20.010Z,16.00
2018-07-17T21:12:48.912Z,17.42
2018-07-17T21:15:17.780Z,16.25
2018-07-17T21:17:46.699Z,16.70
2018-07-17T21:20:15.548Z,16.90
2018-07-17T21:22:44.435Z,18.27
2018-07-17T21:25:13.281Z,18.57
2018-07-17T21:27:42.163Z,18.05
2018-07-17T21:30:11.109Z,16.90
2018-07-17T21:32:39.922Z,16.85
2018-07-17T21:35:08.837Z,17.95
2018-07-17T21:37:37.789Z,17.30
2018-07-17T21:40:06.704Z,19.40
2018-07-17T21:42:35.549Z,16.37
2018-07-17T21:45:04.521Z,16.35
2018-07-17T21:47:33.384Z,16.93
2018-07-17T21:50:02.277Z,17.77
2018-07-17T21:52:31.120Z,15.20
2018-07-17T21:55:00.069Z,17.73
2018-07-17T21:57:28.957Z,17.87
2018-07-17T21:59:57.801Z,17.25
2018-07-17T22:02:27.111Z,16.57
2018-07-17T22:04:55.996Z,19.80
2018-07-17T22:07:24.894Z,19.70
2018-07-17T22:09:53.798Z,19.48
2018-07-17T22:12:22.692Z,19.70
2018-07-17T22:14:51.632Z,21.48
2018-07-17T22:17:20.508Z,19.45
2018-07-17T22:19:49.324Z,19.57
2018-07-17T22:22:18.208Z,20.57
2018-07-17T22:24:47.048Z,20.15
2018-07-17T22:27:15.921Z,20.92
2018-07-17T22:29:44.804Z,21.93
2018-07-17T22:32:13.767Z,19.57
2018-07-17T22:34:42.623Z,20.55
2018-07-17T22:37:11.516Z,19.50
2018-07-17T22:39:40.480Z,21.00
2018-07-17T22:42:09.295Z,20.50
2018-07-17T22:44:38.188Z,22.02
2018-07-17T22:47:07.069Z,22.80
2018-07-17T22:49:35.962Z,20.90
2018-07-17T22:52:04.851Z,22.70
2018-07-17T22:54:33.731Z,19.70
2018-07-17T22:57:02.580Z,19.32
2018-07-17T22:59:31.487Z,19.87
2018-07-17T23:02:00.393Z,18.95
2018-07-17T23:04:29.280Z,21.35
2018-07-17T23:06:58.159Z,20.23
2018-07-17T23:09:27.132Z,20.10
2018-07-17T23:11:56.048Z,21.37
2018-07-17T23:14:24.944Z,21.62
2018-07-17T23:16:53.853Z,21.55
2018-07-17T23:19:22.715Z,20.23
2018-07-17T23:21:51.632Z,19.75
2018-07-17T23:24:20.487Z,20.32
2018-07-17T23:26:49.380Z,20.55
2018-07-17T23:29:18.268Z,21.80
2018-07-17T23:31:47.110Z,22.50
2018-07-17T23:34:15.654Z,21.70
2018-07-17T23:36:44.467Z,21.12
2018-07-17T23:39:13.335Z,22.40
2018-07-17T23:41:42.495Z,21.55
2018-07-17T23:44:11.436Z,23.80
2018-07-17T23:46:40.282Z,25.05
2018-07-17T23:49:12.219Z,26.55
2018-07-17T23:51:41.083Z,26.40
2018-07-17T23:54:09.956Z,24.25
2018-07-17T23:56:41.623Z,26.35
2018-07-17T23:59:17.198Z,26.17
